Accueil
METAR-TAF:

METAR-TAF

Aéroports :

Aéroport international de Gibraltar

Gibraltar, Gibraltar

latitude: 36-09N, longitude: 005-21W, altitude: 5 m

Observation

Le bulletin a été fait il y a 28 minutes, à 21:50 UTC
Vent 6 kt de ouest/sud-ouest
Température 15°C
Humidité 72%
Pression 1015 hPa
Visibilité 10 km ou plus

METAR: LXGB 192150Z AUTO 25006KT 9999 // FEW002/// 15/10 Q1015

Heure: 00:18 (22:18 UTC)

Prévision

Le bulletin a été fait il y a 5 heures et 32 minutes, à 16:46 UTC
Prévision valable du 19 à 18 UTC au 19 à 22 UTC
Vent 8 kt de sud/sud-ouest
Visibilité 10 km ou plus
Quelques nuages à une hauteur de 3000 ft
Nuages épars à une hauteur de 5000 ft

TAF: LXGB 191646Z 1918/1922 20008KT 9999 FEW030 SCT050

Observations et prévisions météorologiques de plus de 4000 aéroports (messages METAR et TAF).

Les stations disponibles sont représentées par des disques jaunes et rouges sur la carte.

Passer la souris dessus pour voir le nom de la station.

Cliquer dessus pour voir les observations et prévisions météorologiques.

Pour changer de carte: cliquez sur les boutons verts avec une croix noire pour zoomer, sur le bouton vert avec un tiret pour effectuer un zoom arrière, ou sur les flèches vertes pour les cartes adjacentes.


METAR-TAF: